createdAt,value
2023-04-30T00:00:25.117Z,3.20
2023-04-30T00:02:52.047Z,3.13
2023-04-30T00:05:18.944Z,3.30
2023-04-30T00:07:45.788Z,6.03
2023-04-30T00:10:12.707Z,3.65
2023-04-30T00:12:39.612Z,3.75
2023-04-30T00:15:07.016Z,3.60
2023-04-30T00:17:33.923Z,3.20
2023-04-30T00:20:00.802Z,3.40
2023-04-30T00:22:27.687Z,3.33
2023-04-30T00:24:54.542Z,3.80
2023-04-30T00:27:21.428Z,3.30
2023-04-30T00:29:48.284Z,3.05
2023-04-30T00:32:15.384Z,3.80
2023-04-30T00:34:42.413Z,3.60
2023-04-30T00:37:09.311Z,3.25
2023-04-30T00:39:36.227Z,2.83
2023-04-30T00:42:03.154Z,3.35
2023-04-30T00:44:30.027Z,3.17
2023-04-30T00:46:56.889Z,3.40
2023-04-30T00:49:23.882Z,2.90
2023-04-30T00:51:52.332Z,3.50
2023-04-30T00:54:20.963Z,3.60
2023-04-30T00:56:47.872Z,3.40
2023-04-30T00:59:14.934Z,3.40
2023-04-30T01:01:42.219Z,3.20
2023-04-30T01:04:09.217Z,3.30
2023-04-30T01:06:36.247Z,3.00
2023-04-30T01:09:03.230Z,3.33
2023-04-30T01:11:45.205Z,3.40
2023-04-30T01:14:50.381Z,3.40
2023-04-30T01:17:34.053Z,3.13
2023-04-30T01:20:02.175Z,3.40
2023-04-30T01:22:29.037Z,3.60
2023-04-30T01:25:21.537Z,3.63
2023-04-30T01:28:06.192Z,4.00
2023-04-30T01:30:34.060Z,3.80
2023-04-30T01:33:01.697Z,3.40
2023-04-30T01:35:46.490Z,3.50
2023-04-30T01:38:23.131Z,3.50
2023-04-30T01:41:25.274Z,3.20
2023-04-30T01:44:06.960Z,3.88
2023-04-30T01:46:33.844Z,3.65
2023-04-30T01:49:21.746Z,3.97
2023-04-30T01:51:51.449Z,3.50
2023-04-30T01:54:41.487Z,3.40
2023-04-30T01:57:16.432Z,3.80
2023-04-30T01:59:44.581Z,3.60
2023-04-30T02:02:11.404Z,3.80
2023-04-30T02:04:38.290Z,4.32
2023-04-30T02:07:05.129Z,3.25
2023-04-30T02:09:31.982Z,3.90
2023-04-30T02:11:58.841Z,3.80
2023-04-30T02:14:25.786Z,3.90
2023-04-30T02:16:52.623Z,4.00
2023-04-30T02:19:19.444Z,3.90
2023-04-30T02:21:46.364Z,3.40
2023-04-30T02:24:13.231Z,3.50
2023-04-30T02:26:40.079Z,3.40
2023-04-30T02:29:06.912Z,3.65
2023-04-30T02:31:33.854Z,3.63
2023-04-30T02:34:00.709Z,3.65
2023-04-30T02:36:27.561Z,4.18
2023-04-30T02:38:54.444Z,3.80
2023-04-30T02:41:21.308Z,3.83
2023-04-30T02:43:48.203Z,4.28
2023-04-30T02:46:15.134Z,4.30
2023-04-30T02:48:42.039Z,4.30
2023-04-30T02:51:08.893Z,4.00
2023-04-30T02:53:35.785Z,3.83
2023-04-30T02:56:02.639Z,3.90
2023-04-30T02:58:29.536Z,4.10
2023-04-30T03:00:56.463Z,3.75
2023-04-30T03:03:23.543Z,4.40
2023-04-30T03:05:50.525Z,3.70
2023-04-30T03:08:17.384Z,3.80
2023-04-30T03:10:44.217Z,4.15
2023-04-30T03:13:11.110Z,3.78
2023-04-30T03:15:37.951Z,3.80
2023-04-30T03:18:04.817Z,3.80
2023-04-30T03:20:31.751Z,3.53
2023-04-30T03:22:58.606Z,3.80
2023-04-30T03:25:25.514Z,3.50
2023-04-30T03:27:52.408Z,4.30
2023-04-30T03:30:19.457Z,4.10
2023-04-30T03:32:46.344Z,4.40
2023-04-30T03:35:13.220Z,4.32
2023-04-30T03:37:40.110Z,6.00
2023-04-30T03:40:07.840Z,6.13
2023-04-30T03:42:34.728Z,4.75
2023-04-30T03:45:01.565Z,4.40
2023-04-30T03:47:28.523Z,3.92
2023-04-30T03:49:56.053Z,3.78
2023-04-30T03:52:23.321Z,3.70
2023-04-30T03:54:50.261Z,4.00
2023-04-30T03:57:17.278Z,5.22
2023-04-30T03:59:44.216Z,5.68
2023-04-30T04:02:11.147Z,4.80
2023-04-30T04:04:38.115Z,4.20
2023-04-30T04:07:04.998Z,4.20
2023-04-30T04:09:31.849Z,3.70
2023-04-30T04:11:58.766Z,3.83
2023-04-30T04:14:25.617Z,3.63
2023-04-30T04:16:52.576Z,7.75
2023-04-30T04:19:19.510Z,12.80
2023-04-30T04:21:46.357Z,6.97
2023-04-30T04:24:13.247Z,4.53
2023-04-30T04:26:40.298Z,4.18
2023-04-30T04:29:07.496Z,4.20
2023-04-30T04:31:34.474Z,4.25
2023-04-30T04:34:04.552Z,4.30
2023-04-30T04:36:32.204Z,5.82
2023-04-30T04:38:59.096Z,19.07
2023-04-30T04:41:25.941Z,12.20
2023-04-30T04:43:52.805Z,13.30
2023-04-30T04:46:19.802Z,6.88
2023-04-30T04:48:47.041Z,4.63
2023-04-30T04:51:13.889Z,3.70
2023-04-30T04:53:40.806Z,5.10
2023-04-30T04:56:07.853Z,4.23
2023-04-30T04:58:35.067Z,4.50
2023-04-30T05:01:01.961Z,4.50
2023-04-30T05:03:29.629Z,4.70
2023-04-30T05:05:56.642Z,5.70
2023-04-30T05:08:23.604Z,7.03
2023-04-30T05:10:50.456Z,7.15
2023-04-30T05:13:17.327Z,6.30
2023-04-30T05:15:44.207Z,5.60
2023-04-30T05:18:11.102Z,5.70
2023-04-30T05:20:38.002Z,6.43
2023-04-30T05:23:04.861Z,4.15
2023-04-30T05:25:31.733Z,5.93
2023-04-30T05:27:58.675Z,4.95
2023-04-30T05:30:25.559Z,4.75
2023-04-30T05:32:52.647Z,4.10
2023-04-30T05:35:19.735Z,4.20
2023-04-30T05:37:46.736Z,4.32
2023-04-30T05:40:14.594Z,5.57
2023-04-30T05:42:42.218Z,5.20
2023-04-30T05:45:09.893Z,5.03
2023-04-30T05:47:36.806Z,5.40
2023-04-30T05:50:03.915Z,5.07
2023-04-30T05:52:30.789Z,5.15
2023-04-30T05:54:57.666Z,7.65
2023-04-30T05:57:24.521Z,4.63
2023-04-30T05:59:51.372Z,4.30
2023-04-30T06:02:18.300Z,4.15
2023-04-30T06:04:45.289Z,4.40
2023-04-30T06:07:12.166Z,4.00
2023-04-30T06:09:39.102Z,4.73
2023-04-30T06:12:06.099Z,4.38
2023-04-30T06:14:33.053Z,6.30
2023-04-30T06:16:59.955Z,5.32
2023-04-30T06:19:26.833Z,4.40
2023-04-30T06:21:53.735Z,4.68
2023-04-30T06:24:20.580Z,6.47
2023-04-30T06:26:47.457Z,4.40
2023-04-30T06:29:14.298Z,3.78
2023-04-30T06:31:41.153Z,3.40
2023-04-30T06:34:08.111Z,3.75
2023-04-30T06:36:34.938Z,3.30
2023-04-30T06:39:01.801Z,2.73
2023-04-30T06:41:28.683Z,3.30
2023-04-30T06:43:55.561Z,2.70
2023-04-30T06:46:22.488Z,2.72
2023-04-30T06:48:49.382Z,3.30
2023-04-30T06:51:16.238Z,2.75
2023-04-30T06:53:43.113Z,3.50
2023-04-30T06:56:09.985Z,3.00
2023-04-30T06:58:36.812Z,3.10
2023-04-30T07:01:03.718Z,3.10
2023-04-30T07:03:30.696Z,3.10
2023-04-30T07:05:57.716Z,3.00
2023-04-30T07:08:24.573Z,3.60
2023-04-30T07:10:51.426Z,3.50
2023-04-30T07:13:18.317Z,3.50
2023-04-30T07:15:45.386Z,3.58
2023-04-30T07:18:12.309Z,2.75
2023-04-30T07:20:39.212Z,3.20
2023-04-30T07:23:06.076Z,3.28
2023-04-30T07:25:32.933Z,3.10
2023-04-30T07:27:59.805Z,2.80
2023-04-30T07:30:26.702Z,2.70
2023-04-30T07:32:53.612Z,3.53
2023-04-30T07:35:20.554Z,10.32
2023-04-30T07:37:47.408Z,4.20
2023-04-30T07:40:22.010Z,2.60
2023-04-30T07:42:55.702Z,2.60
2023-04-30T07:45:22.576Z,2.60
2023-04-30T07:47:49.469Z,2.50
2023-04-30T07:50:16.384Z,2.50
2023-04-30T07:55:29.468Z,2.80
2023-04-30T07:57:56.365Z,2.50
2023-04-30T08:00:23.336Z,7.97
2023-04-30T08:02:50.396Z,4.00
2023-04-30T08:05:17.627Z,2.97
2023-04-30T08:07:44.488Z,2.55
2023-04-30T08:10:11.427Z,2.80
2023-04-30T08:12:47.379Z,3.30
2023-04-30T08:15:14.326Z,2.90
2023-04-30T08:17:41.232Z,2.60
2023-04-30T08:20:08.554Z,3.00
2023-04-30T08:22:35.407Z,2.92
2023-04-30T08:25:02.323Z,2.55
2023-04-30T08:27:31.602Z,2.83
2023-04-30T08:29:58.659Z,2.80
2023-04-30T08:32:25.666Z,2.60
2023-04-30T08:34:53.429Z,2.60
2023-04-30T08:37:20.453Z,3.10
2023-04-30T08:39:47.378Z,2.70
2023-04-30T08:42:15.392Z,3.25
2023-04-30T08:44:42.714Z,2.47
2023-04-30T08:47:11.578Z,2.60
2023-04-30T08:49:38.996Z,2.70
2023-04-30T08:52:05.902Z,2.90
2023-04-30T08:54:35.588Z,2.67
2023-04-30T08:57:02.526Z,2.40
2023-04-30T08:59:29.477Z,2.60
2023-04-30T09:01:56.547Z,2.78
2023-04-30T09:04:23.587Z,2.65
2023-04-30T09:06:53.402Z,2.20
2023-04-30T09:09:20.259Z,2.40
2023-04-30T09:11:47.116Z,2.22
2023-04-30T09:14:14.002Z,2.80
2023-04-30T09:16:49.279Z,2.60
2023-04-30T09:19:23.670Z,2.38
2023-04-30T09:21:50.596Z,2.38
2023-04-30T09:24:18.732Z,2.30
2023-04-30T09:26:46.375Z,2.80
2023-04-30T09:29:14.045Z,2.60
2023-04-30T09:31:46.797Z,2.70
2023-04-30T09:34:14.753Z,2.63
2023-04-30T09:36:54.735Z,2.60
2023-04-30T09:39:21.809Z,2.80
2023-04-30T09:41:50.359Z,3.10
2023-04-30T09:44:28.118Z,2.30
2023-04-30T09:46:59.355Z,2.70
2023-04-30T09:49:26.962Z,2.67
2023-04-30T09:51:55.376Z,3.13
2023-04-30T09:54:32.601Z,3.00
2023-04-30T09:57:01.352Z,2.70
2023-04-30T09:59:33.207Z,2.80
2023-04-30T10:02:02.097Z,2.50
2023-04-30T10:04:37.803Z,2.30
2023-04-30T10:07:09.104Z,2.28
2023-04-30T10:09:54.219Z,2.40
2023-04-30T10:12:26.140Z,2.10
2023-04-30T10:14:57.794Z,2.30
2023-04-30T10:17:28.054Z,2.17
2023-04-30T10:20:01.914Z,2.20
2023-04-30T10:22:29.992Z,1.80
2023-04-30T10:24:57.314Z,2.30
2023-04-30T10:27:24.322Z,1.90
2023-04-30T10:29:51.563Z,2.30
2023-04-30T10:32:19.900Z,2.20
2023-04-30T10:34:59.368Z,2.17
2023-04-30T10:37:43.421Z,2.13
2023-04-30T10:40:10.691Z,2.10
2023-04-30T10:42:37.760Z,2.30
2023-04-30T10:45:04.860Z,2.20
2023-04-30T10:47:31.950Z,1.98
2023-04-30T10:50:08.467Z,2.20
2023-04-30T10:52:38.107Z,1.90
2023-04-30T10:55:06.798Z,2.10
2023-04-30T10:57:44.223Z,2.10
2023-04-30T11:00:11.040Z,2.30
2023-04-30T11:02:44.636Z,2.30
2023-04-30T11:05:16.142Z,2.00
2023-04-30T11:07:57.682Z,1.90
2023-04-30T11:10:26.428Z,2.20
2023-04-30T11:12:55.392Z,2.10
2023-04-30T11:15:26.720Z,2.20
2023-04-30T11:17:58.193Z,2.20
2023-04-30T11:20:26.089Z,2.40
2023-04-30T11:23:08.909Z,2.00
2023-04-30T11:25:43.895Z,2.27
2023-04-30T11:28:24.779Z,2.20
2023-04-30T11:30:59.521Z,2.30
2023-04-30T11:33:28.185Z,2.60
2023-04-30T11:36:00.353Z,2.50
2023-04-30T11:38:29.931Z,2.60
2023-04-30T11:40:58.043Z,6.90
2023-04-30T11:43:26.649Z,3.22
2023-04-30T11:46:16.045Z,2.60
2023-04-30T11:48:45.495Z,2.30
2023-04-30T11:51:23.692Z,2.20
2023-04-30T11:53:52.376Z,2.00
2023-04-30T11:56:20.281Z,2.50
2023-04-30T11:58:47.975Z,2.30
2023-04-30T12:01:15.666Z,2.30
2023-04-30T12:03:47.156Z,2.20
2023-04-30T12:06:27.995Z,1.98
2023-04-30T12:08:56.263Z,2.40
2023-04-30T12:11:28.501Z,2.20
2023-04-30T12:14:16.409Z,2.50
2023-04-30T12:16:48.683Z,2.30
2023-04-30T12:19:19.894Z,2.30
2023-04-30T12:21:47.692Z,2.10
2023-04-30T12:24:16.368Z,2.72
2023-04-30T12:26:43.776Z,3.10
2023-04-30T12:29:20.309Z,2.40
2023-04-30T12:31:50.062Z,2.00
2023-04-30T12:34:16.916Z,2.40
2023-04-30T12:36:43.825Z,2.00
2023-04-30T12:39:13.427Z,1.90
2023-04-30T12:41:45.396Z,2.25
2023-04-30T12:44:23.926Z,2.30
2023-04-30T12:46:53.026Z,2.00
2023-04-30T12:49:30.760Z,2.28
2023-04-30T12:52:05.473Z,1.90
2023-04-30T12:54:32.796Z,2.30
2023-04-30T12:57:04.636Z,2.33
2023-04-30T12:59:33.560Z,5.10
2023-04-30T13:02:28.218Z,2.20
2023-04-30T13:04:55.354Z,3.50
2023-04-30T13:07:22.400Z,2.30
2023-04-30T13:09:49.259Z,2.30
2023-04-30T13:12:16.116Z,2.27
2023-04-30T13:14:43.011Z,2.30
2023-04-30T13:17:09.923Z,2.20
2023-04-30T13:19:36.884Z,2.20
2023-04-30T13:22:03.778Z,2.20
2023-04-30T13:24:30.716Z,2.50
2023-04-30T13:26:57.591Z,2.00
2023-04-30T13:29:25.167Z,2.60
2023-04-30T13:31:52.073Z,1.80
2023-04-30T13:34:18.968Z,3.00
2023-04-30T13:36:45.847Z,4.07
2023-04-30T13:39:12.740Z,2.50
2023-04-30T13:41:39.603Z,2.10
2023-04-30T13:44:06.536Z,2.30
2023-04-30T13:46:33.464Z,1.90
2023-04-30T13:49:00.426Z,2.10
2023-04-30T13:51:27.277Z,2.20
2023-04-30T13:53:54.187Z,2.15
2023-04-30T13:56:21.102Z,2.10
2023-04-30T13:58:47.966Z,2.30
2023-04-30T14:01:14.909Z,2.33
2023-04-30T14:03:41.895Z,2.10
2023-04-30T14:06:08.963Z,2.20
2023-04-30T14:08:35.899Z,2.30
2023-04-30T14:11:02.745Z,1.80
2023-04-30T14:13:29.607Z,2.10
2023-04-30T14:15:56.521Z,2.28
2023-04-30T14:18:23.565Z,2.35
2023-04-30T14:20:50.441Z,2.10
2023-04-30T14:23:17.312Z,2.08
2023-04-30T14:25:44.209Z,2.20
2023-04-30T14:28:11.152Z,2.20
2023-04-30T14:30:38.094Z,2.00
2023-04-30T14:33:05.029Z,2.22
2023-04-30T14:35:32.598Z,2.22
2023-04-30T14:37:59.468Z,1.90
2023-04-30T14:40:26.376Z,1.90
2023-04-30T14:42:53.250Z,2.10
2023-04-30T14:45:20.191Z,2.00
2023-04-30T14:47:47.148Z,2.20
2023-04-30T14:50:14.035Z,2.05
2023-04-30T14:52:40.917Z,2.10
2023-04-30T14:55:08.216Z,2.17
2023-04-30T14:57:35.100Z,2.23
2023-04-30T15:00:02.323Z,2.10
2023-04-30T15:02:29.336Z,2.00
2023-04-30T15:04:56.240Z,2.28
2023-04-30T15:07:23.122Z,1.93
2023-04-30T15:09:50.050Z,2.00
2023-04-30T15:12:16.871Z,2.22
2023-04-30T15:14:43.710Z,2.13
2023-04-30T15:17:10.645Z,2.20
2023-04-30T15:19:37.502Z,2.27
2023-04-30T15:22:04.441Z,2.25
2023-04-30T15:24:31.325Z,1.95
2023-04-30T15:26:58.367Z,2.13
2023-04-30T15:29:25.328Z,2.00
2023-04-30T15:31:52.254Z,2.20
2023-04-30T15:34:19.758Z,2.47
2023-04-30T15:36:46.734Z,1.98
2023-04-30T15:39:13.809Z,2.17
2023-04-30T15:41:40.692Z,2.20
2023-04-30T15:44:07.571Z,2.40
2023-04-30T15:46:34.528Z,2.50
2023-04-30T15:49:01.454Z,3.28
2023-04-30T15:51:28.319Z,2.20
2023-04-30T15:53:55.610Z,1.92
2023-04-30T15:56:22.486Z,2.33
2023-04-30T15:58:49.345Z,2.13
2023-04-30T16:01:16.224Z,2.05
2023-04-30T16:03:43.321Z,1.90
2023-04-30T16:06:10.285Z,2.20
2023-04-30T16:08:37.404Z,2.03
2023-04-30T16:11:04.342Z,2.20
2023-04-30T16:13:31.171Z,2.20
2023-04-30T16:15:58.054Z,2.58
2023-04-30T16:18:24.998Z,2.70
2023-04-30T16:20:51.987Z,2.10
2023-04-30T16:23:18.871Z,2.30
2023-04-30T16:25:45.743Z,2.10
2023-04-30T16:28:12.652Z,2.20
2023-04-30T16:30:39.610Z,2.50
2023-04-30T16:33:06.523Z,2.30
2023-04-30T16:35:33.444Z,2.10
2023-04-30T16:38:00.279Z,2.30
2023-04-30T16:40:27.139Z,2.20
2023-04-30T16:42:54.034Z,2.50
2023-04-30T16:45:20.953Z,2.10
2023-04-30T16:47:47.868Z,2.20
2023-04-30T16:50:14.719Z,2.88
2023-04-30T16:52:41.595Z,3.63
2023-04-30T16:55:08.912Z,11.90
2023-04-30T16:57:35.964Z,15.77
2023-04-30T17:00:03.510Z,5.10
2023-04-30T17:02:30.433Z,2.70
2023-04-30T17:04:57.390Z,2.40
2023-04-30T17:07:24.243Z,2.50
2023-04-30T17:09:52.548Z,2.28
2023-04-30T17:12:19.515Z,2.20
2023-04-30T17:14:46.388Z,2.10
2023-04-30T17:17:13.241Z,2.30
2023-04-30T17:19:40.091Z,2.63
2023-04-30T17:22:06.989Z,2.90
2023-04-30T17:24:33.835Z,2.20
2023-04-30T17:27:00.758Z,2.40
2023-04-30T17:29:27.729Z,2.40
2023-04-30T17:31:54.736Z,2.60
2023-04-30T17:34:21.665Z,2.70
2023-04-30T17:36:48.511Z,8.90
2023-04-30T17:39:15.443Z,3.90
2023-04-30T17:41:42.560Z,2.80
2023-04-30T17:44:09.437Z,2.72
2023-04-30T17:46:36.403Z,2.60
2023-04-30T17:49:03.279Z,2.80
2023-04-30T17:51:30.271Z,2.88
2023-04-30T17:53:57.730Z,2.50
2023-04-30T17:56:24.662Z,2.40
2023-04-30T17:58:51.702Z,3.60
2023-04-30T18:01:18.573Z,16.42
2023-04-30T18:03:45.534Z,17.93
2023-04-30T18:06:12.480Z,8.90
2023-04-30T18:08:39.409Z,3.03
2023-04-30T18:11:06.925Z,3.03
2023-04-30T18:13:33.845Z,2.90
2023-04-30T18:16:00.945Z,3.47
2023-04-30T18:18:27.835Z,2.80
2023-04-30T18:20:55.879Z,3.20
2023-04-30T18:23:22.868Z,3.17
2023-04-30T18:25:49.914Z,3.35
2023-04-30T18:28:16.808Z,3.15
2023-04-30T18:30:43.720Z,3.00
2023-04-30T18:33:10.695Z,3.22
2023-04-30T18:35:37.653Z,2.80
2023-04-30T18:38:04.581Z,3.10
2023-04-30T18:40:31.426Z,3.30
2023-04-30T18:42:58.322Z,3.10
2023-04-30T18:45:25.308Z,3.92
2023-04-30T18:47:52.238Z,7.22
2023-04-30T18:50:19.181Z,3.57
2023-04-30T18:52:46.153Z,3.22
2023-04-30T18:55:13.056Z,3.20
2023-04-30T18:57:42.114Z,3.30
2023-04-30T19:00:10.488Z,2.80
2023-04-30T19:02:37.388Z,3.20
2023-04-30T19:05:04.639Z,3.35
2023-04-30T19:07:31.492Z,3.50
2023-04-30T19:09:59.043Z,4.68
2023-04-30T19:12:26.017Z,8.13
2023-04-30T19:14:52.893Z,3.70
2023-04-30T19:17:21.435Z,2.80
2023-04-30T19:19:48.799Z,2.90
2023-04-30T19:22:15.725Z,2.85
2023-04-30T19:24:42.579Z,2.90
2023-04-30T19:27:09.646Z,3.05
2023-04-30T19:29:36.528Z,3.10
2023-04-30T19:32:03.550Z,3.80
2023-04-30T19:34:30.612Z,4.00
2023-04-30T19:36:57.499Z,4.50
2023-04-30T19:39:32.061Z,4.80
2023-04-30T19:41:58.999Z,4.70
2023-04-30T19:44:26.025Z,4.57
2023-04-30T19:46:52.933Z,3.90
2023-04-30T19:49:19.779Z,3.50
2023-04-30T19:51:46.636Z,3.20
2023-04-30T19:54:13.537Z,3.50
2023-04-30T19:56:43.669Z,3.40
2023-04-30T19:59:10.535Z,2.97
2023-04-30T20:01:37.491Z,2.60
2023-04-30T20:04:04.822Z,2.60
2023-04-30T20:06:31.803Z,2.50
2023-04-30T20:08:59.371Z,2.80
2023-04-30T20:11:26.284Z,3.10
2023-04-30T20:13:55.057Z,3.00
2023-04-30T20:16:21.989Z,3.03
2023-04-30T20:18:48.942Z,3.00
2023-04-30T20:21:16.273Z,3.10
2023-04-30T20:23:43.634Z,3.70
2023-04-30T20:26:10.494Z,3.35
2023-04-30T20:28:37.499Z,3.30
2023-04-30T20:31:04.390Z,3.58
2023-04-30T20:33:31.299Z,4.43
2023-04-30T20:36:00.166Z,3.00
2023-04-30T20:38:27.005Z,3.08
2023-04-30T20:40:53.845Z,2.80
2023-04-30T20:43:20.686Z,2.83
2023-04-30T20:45:47.568Z,2.90
2023-04-30T20:48:14.588Z,3.17
2023-04-30T20:50:41.498Z,3.70
2023-04-30T20:53:10.828Z,3.80
2023-04-30T20:55:38.300Z,3.60
2023-04-30T20:58:05.186Z,4.10
2023-04-30T21:00:32.094Z,4.45
2023-04-30T21:02:59.166Z,4.33
2023-04-30T21:05:26.332Z,5.10
2023-04-30T21:07:53.204Z,5.70
2023-04-30T21:10:20.183Z,4.82
2023-04-30T21:12:47.002Z,5.20
2023-04-30T21:15:13.925Z,4.53
2023-04-30T21:17:40.828Z,5.30
2023-04-30T21:20:08.520Z,4.90
2023-04-30T21:22:35.376Z,5.75
2023-04-30T21:25:02.354Z,5.93
2023-04-30T21:27:29.234Z,7.10
2023-04-30T21:29:56.376Z,8.77
2023-04-30T21:32:23.528Z,6.45
2023-04-30T21:34:50.418Z,5.85
2023-04-30T21:37:17.539Z,7.85
2023-04-30T21:39:44.472Z,4.70
2023-04-30T21:42:11.358Z,5.35
2023-04-30T21:44:38.247Z,6.20
2023-04-30T21:47:05.077Z,5.10
2023-04-30T21:49:31.975Z,5.35
2023-04-30T21:51:58.882Z,6.23
2023-04-30T21:54:25.745Z,6.40
2023-04-30T21:56:52.778Z,4.90
2023-04-30T21:59:19.674Z,3.38
2023-04-30T22:01:46.717Z,3.50
2023-04-30T22:04:13.727Z,3.83
2023-04-30T22:06:40.673Z,2.92
2023-04-30T22:09:07.592Z,3.30
2023-04-30T22:11:35.135Z,3.50
2023-04-30T22:14:02.046Z,2.80
2023-04-30T22:16:29.110Z,3.20
2023-04-30T22:18:58.132Z,2.60
2023-04-30T22:21:25.998Z,2.83
2023-04-30T22:23:52.887Z,3.03
2023-04-30T22:26:19.793Z,2.90
2023-04-30T22:28:46.788Z,2.90
2023-04-30T22:31:13.713Z,3.10
2023-04-30T22:33:40.648Z,2.83
2023-04-30T22:36:08.871Z,3.00
2023-04-30T22:38:35.827Z,3.00
2023-04-30T22:41:03.361Z,3.20
2023-04-30T22:43:30.977Z,3.30
2023-04-30T22:45:59.350Z,3.20
2023-04-30T22:48:27.336Z,4.50
2023-04-30T22:50:54.334Z,5.87
2023-04-30T22:53:21.287Z,5.57
2023-04-30T22:55:48.260Z,6.68
2023-04-30T22:58:15.205Z,5.03
2023-04-30T23:00:42.117Z,4.95
2023-04-30T23:03:08.998Z,5.40
2023-04-30T23:05:35.970Z,4.30
2023-04-30T23:08:03.017Z,3.85
2023-04-30T23:10:30.176Z,3.28
2023-04-30T23:12:57.046Z,3.70
2023-04-30T23:15:23.923Z,3.38
2023-04-30T23:17:50.829Z,2.97
2023-04-30T23:20:17.987Z,3.50
2023-04-30T23:22:44.803Z,3.00
2023-04-30T23:25:11.650Z,3.17
2023-04-30T23:27:38.530Z,3.13
2023-04-30T23:30:06.184Z,3.00
2023-04-30T23:32:33.112Z,2.95
2023-04-30T23:35:00.246Z,3.20
2023-04-30T23:37:27.086Z,3.75
2023-04-30T23:39:54.106Z,3.60
2023-04-30T23:42:21.212Z,3.50
2023-04-30T23:44:48.125Z,3.30
2023-04-30T23:47:15.059Z,3.20
2023-04-30T23:49:44.029Z,2.70
2023-04-30T23:52:12.693Z,2.70
2023-04-30T23:54:39.574Z,3.13
2023-04-30T23:57:06.442Z,2.40
2023-04-30T23:59:33.340Z,2.70
